sensor_id;sensor_type;location;lat;lon;timestamp;pressure;altitude;pressure_sealevel;temperature;humidity
63554;BME280;49699;48.072;7.800;2023-04-06T00:01:38;99728.03;;;1.08;66.38
63554;BME280;49699;48.072;7.800;2023-04-06T00:04:03;99729.81;;;1.06;66.53
63554;BME280;49699;48.072;7.800;2023-04-06T00:06:29;99728.97;;;1.05;66.56
63554;BME280;49699;48.072;7.800;2023-04-06T00:08:55;99730.69;;;1.04;66.57
63554;BME280;49699;48.072;7.800;2023-04-06T00:11:21;99723.84;;;1.03;66.73
63554;BME280;49699;48.072;7.800;2023-04-06T00:13:46;99724.69;;;1.04;66.77
63554;BME280;49699;48.072;7.800;2023-04-06T00:16:11;99729.88;;;1.01;67.01
63554;BME280;49699;48.072;7.800;2023-04-06T00:18:37;99723.09;;;0.95;67.25
63554;BME280;49699;48.072;7.800;2023-04-06T00:21:02;99718.91;;;0.90;67.44
63554;BME280;49699;48.072;7.800;2023-04-06T00:23:28;99708.75;;;0.84;67.61
63554;BME280;49699;48.072;7.800;2023-04-06T00:25:53;99723.31;;;0.80;67.73
63554;BME280;49699;48.072;7.800;2023-04-06T00:28:18;99714.84;;;0.74;68.02
63554;BME280;49699;48.072;7.800;2023-04-06T00:30:50;99720.06;;;0.71;68.34
63554;BME280;49699;48.072;7.800;2023-04-06T00:33:17;99712.41;;;0.67;68.22
63554;BME280;49699;48.072;7.800;2023-04-06T00:35:42;99721.81;;;0.67;68.35
63554;BME280;49699;48.072;7.800;2023-04-06T00:38:07;99714.13;;;0.67;68.42
63554;BME280;49699;48.072;7.800;2023-04-06T00:40:33;99704.78;;;0.63;68.61
63554;BME280;49699;48.072;7.800;2023-04-06T00:42:59;99715.06;;;0.58;68.97
63554;BME280;49699;48.072;7.800;2023-04-06T00:45:25;99706.56;;;0.55;68.69
63554;BME280;49699;48.072;7.800;2023-04-06T00:47:50;99710.88;;;0.53;69.09
63554;BME280;49699;48.072;7.800;2023-04-06T00:50:16;99708.38;;;0.50;68.87
63554;BME280;49699;48.072;7.800;2023-04-06T00:52:41;99706.66;;;0.49;69.13
63554;BME280;49699;48.072;7.800;2023-04-06T00:55:08;99706.72;;;0.44;69.26
63554;BME280;49699;48.072;7.800;2023-04-06T00:57:38;99713.56;;;0.44;69.42
63554;BME280;49699;48.072;7.800;2023-04-06T01:00:04;99710.16;;;0.42;69.20
63554;BME280;49699;48.072;7.800;2023-04-06T01:02:30;99701.66;;;0.38;69.27
63554;BME280;49699;48.072;7.800;2023-04-06T01:04:56;99702.59;;;0.32;69.58
63554;BME280;49699;48.072;7.800;2023-04-06T01:07:30;99707.75;;;0.29;69.82
63554;BME280;49699;48.072;7.800;2023-04-06T01:10:07;99703.50;;;0.28;69.68
63554;BME280;49699;48.072;7.800;2023-04-06T01:12:34;99707.75;;;0.29;70.05
63554;BME280;49699;48.072;7.800;2023-04-06T01:15:02;99710.31;;;0.29;69.51
63554;BME280;49699;48.072;7.800;2023-04-06T01:17:31;99703.50;;;0.28;69.86
63554;BME280;49699;48.072;7.800;2023-04-06T01:20:03;99701.78;;;0.29;69.75
63554;BME280;49699;48.072;7.800;2023-04-06T01:22:31;99698.38;;;0.28;69.53
63554;BME280;49699;48.072;7.800;2023-04-06T01:24:59;99705.22;;;0.26;69.51
63554;BME280;49699;48.072;7.800;2023-04-06T01:27:31;99694.19;;;0.21;69.68
63554;BME280;49699;48.072;7.800;2023-04-06T01:30:22;99695.06;;;0.19;69.78
63554;BME280;49699;48.072;7.800;2023-04-06T01:32:51;99690.84;;;0.18;69.87
63554;BME280;49699;48.072;7.800;2023-04-06T01:35:27;99694.25;;;0.17;69.81
63554;BME280;49699;48.072;7.800;2023-04-06T01:38:01;99684.03;;;0.15;69.72
63554;BME280;49699;48.072;7.800;2023-04-06T01:40:31;99688.31;;;0.13;70.24
63554;BME280;49699;48.072;7.800;2023-04-06T01:42:56;99689.19;;;0.12;69.84
63554;BME280;49699;48.072;7.800;2023-04-06T01:45:29;99684.94;;;0.10;69.94
63554;BME280;49699;48.072;7.800;2023-04-06T01:48:00;99693.50;;;0.07;70.15
63554;BME280;49699;48.072;7.800;2023-04-06T01:50:27;99690.94;;;0.07;70.10
63554;BME280;49699;48.072;7.800;2023-04-06T01:52:52;99694.34;;;0.08;70.30
63554;BME280;49699;48.072;7.800;2023-04-06T01:55:18;99692.63;;;0.08;70.16
63554;BME280;49699;48.072;7.800;2023-04-06T01:58:06;99691.81;;;0.06;70.12
63554;BME280;49699;48.072;7.800;2023-04-06T02:00:36;99691.81;;;0.06;70.49
63554;BME280;49699;48.072;7.800;2023-04-06T02:03:01;99684.16;;;0.03;70.23
63554;BME280;49699;48.072;7.800;2023-04-06T02:05:29;99689.38;;;-0.03;70.47
63554;BME280;49699;48.072;7.800;2023-04-06T02:07:55;99687.66;;;-0.04;70.79
63554;BME280;49699;48.072;7.800;2023-04-06T02:10:29;99697.91;;;-0.04;70.72
63554;BME280;49699;48.072;7.800;2023-04-06T02:12:56;99694.53;;;-0.08;70.72
63554;BME280;49699;48.072;7.800;2023-04-06T02:15:25;99691.16;;;-0.13;70.85
63554;BME280;49699;48.072;7.800;2023-04-06T02:17:50;99693.75;;;-0.16;71.10
63554;BME280;49699;48.072;7.800;2023-04-06T02:20:16;99690.34;;;-0.18;71.00
63554;BME280;49699;48.072;7.800;2023-04-06T02:22:41;99681.03;;;-0.22;71.16
63554;BME280;49699;48.072;7.800;2023-04-06T02:25:06;99680.22;;;-0.25;71.68
63554;BME280;49699;48.072;7.800;2023-04-06T02:27:32;99677.69;;;-0.28;71.57
63554;BME280;49699;48.072;7.800;2023-04-06T02:29:58;99685.34;;;-0.30;71.96
63554;BME280;49699;48.072;7.800;2023-04-06T02:32:23;99680.25;;;-0.31;71.88
63554;BME280;49699;48.072;7.800;2023-04-06T02:34:48;99682.00;;;-0.35;72.06
63554;BME280;49699;48.072;7.800;2023-04-06T02:37:15;99679.50;;;-0.40;71.90
63554;BME280;49699;48.072;7.800;2023-04-06T02:39:41;99677.81;;;-0.42;72.42
63554;BME280;49699;48.072;7.800;2023-04-06T02:42:07;99673.59;;;-0.46;72.18
63554;BME280;49699;48.072;7.800;2023-04-06T02:44:34;99679.56;;;-0.49;72.60
63554;BME280;49699;48.072;7.800;2023-04-06T02:46:59;99675.31;;;-0.50;72.67
63554;BME280;49699;48.072;7.800;2023-04-06T02:49:25;99680.44;;;-0.50;72.85
63554;BME280;49699;48.072;7.800;2023-04-06T02:51:54;99672.81;;;-0.54;72.72
63554;BME280;49699;48.072;7.800;2023-04-06T02:54:37;99684.78;;;-0.59;72.67
63554;BME280;49699;48.072;7.800;2023-04-06T02:57:03;99672.88;;;-0.60;73.11
63554;BME280;49699;48.072;7.800;2023-04-06T02:59:38;99678.84;;;-0.60;73.03
63554;BME280;49699;48.072;7.800;2023-04-06T03:02:26;99677.13;;;-0.59;72.76
63554;BME280;49699;48.072;7.800;2023-04-06T03:04:59;99671.16;;;-0.60;72.84
63554;BME280;49699;48.072;7.800;2023-04-06T03:07:31;99677.97;;;-0.60;73.34
63554;BME280;49699;48.072;7.800;2023-04-06T03:09:56;99679.69;;;-0.62;73.19
63554;BME280;49699;48.072;7.800;2023-04-06T03:12:21;99672.91;;;-0.65;73.49
63554;BME280;49699;48.072;7.800;2023-04-06T03:15:07;99671.22;;;-0.66;73.44
63554;BME280;49699;48.072;7.800;2023-04-06T03:17:34;99670.38;;;-0.70;73.21
63554;BME280;49699;48.072;7.800;2023-04-06T03:20:03;99673.84;;;-0.72;73.57
63554;BME280;49699;48.072;7.800;2023-04-06T03:22:30;99673.84;;;-0.74;73.54
63554;BME280;49699;48.072;7.800;2023-04-06T03:24:55;99672.16;;;-0.76;73.93
63554;BME280;49699;48.072;7.800;2023-04-06T03:27:20;99668.78;;;-0.80;74.03
63554;BME280;49699;48.072;7.800;2023-04-06T03:29:46;99669.63;;;-0.81;73.78
63554;BME280;49699;48.072;7.800;2023-04-06T03:32:16;99676.44;;;-0.80;73.80
63554;BME280;49699;48.072;7.800;2023-04-06T03:34:41;99674.72;;;-0.79;73.44
63554;BME280;49699;48.072;7.800;2023-04-06T03:37:07;99679.84;;;-0.79;73.67
63554;BME280;49699;48.072;7.800;2023-04-06T03:39:33;99673.88;;;-0.78;73.93
63554;BME280;49699;48.072;7.800;2023-04-06T03:41:59;99676.44;;;-0.78;73.69
63554;BME280;49699;48.072;7.800;2023-04-06T03:44:33;99679.84;;;-0.79;73.78
63554;BME280;49699;48.072;7.800;2023-04-06T03:46:59;99679.84;;;-0.78;73.77
63554;BME280;49699;48.072;7.800;2023-04-06T03:49:25;99684.94;;;-0.78;73.75
63554;BME280;49699;48.072;7.800;2023-04-06T03:51:52;99685.78;;;-0.77;73.60
63554;BME280;49699;48.072;7.800;2023-04-06T03:54:17;99681.53;;;-0.78;73.60
63554;BME280;49699;48.072;7.800;2023-04-06T03:56:43;99681.56;;;-0.81;73.69
63554;BME280;49699;48.072;7.800;2023-04-06T03:59:08;99692.63;;;-0.82;73.81
63554;BME280;49699;48.072;7.800;2023-04-06T04:01:33;99689.25;;;-0.84;73.81
63554;BME280;49699;48.072;7.800;2023-04-06T04:03:58;99688.38;;;-0.83;73.84
63554;BME280;49699;48.072;7.800;2023-04-06T04:06:24;99695.19;;;-0.82;73.76
63554;BME280;49699;48.072;7.800;2023-04-06T04:08:50;99689.25;;;-0.84;73.87
63554;BME280;49699;48.072;7.800;2023-04-06T04:11:15;99692.66;;;-0.85;73.86
63554;BME280;49699;48.072;7.800;2023-04-06T04:13:41;99704.56;;;-0.84;73.77
63554;BME280;49699;48.072;7.800;2023-04-06T04:16:07;99696.91;;;-0.84;74.33
63554;BME280;49699;48.072;7.800;2023-04-06T04:18:34;99701.16;;;-0.85;73.86
63554;BME280;49699;48.072;7.800;2023-04-06T04:20:59;99706.31;;;-0.88;73.88
63554;BME280;49699;48.072;7.800;2023-04-06T04:23:25;99713.13;;;-0.88;74.08
63554;BME280;49699;48.072;7.800;2023-04-06T04:25:50;99709.75;;;-0.92;73.88
63554;BME280;49699;48.072;7.800;2023-04-06T04:28:16;99715.75;;;-0.96;74.39
63554;BME280;49699;48.072;7.800;2023-04-06T04:30:42;99713.22;;;-1.00;73.87
63554;BME280;49699;48.072;7.800;2023-04-06T04:33:10;99718.31;;;-1.02;74.08
63554;BME280;49699;48.072;7.800;2023-04-06T04:35:36;99720.88;;;-1.03;74.21
63554;BME280;49699;48.072;7.800;2023-04-06T04:38:02;99720.03;;;-1.06;74.02
63554;BME280;49699;48.072;7.800;2023-04-06T04:40:28;99720.91;;;-1.05;74.43
63554;BME280;49699;48.072;7.800;2023-04-06T04:43:02;99713.22;;;-1.05;74.18
63554;BME280;49699;48.072;7.800;2023-04-06T04:45:30;99720.03;;;-1.06;74.47
63554;BME280;49699;48.072;7.800;2023-04-06T04:47:58;99719.19;;;-1.03;74.54
63554;BME280;49699;48.072;7.800;2023-04-06T04:50:29;99715.78;;;-1.02;74.36
63554;BME280;49699;48.072;7.800;2023-04-06T04:52:56;99724.28;;;-1.01;73.97
63554;BME280;49699;48.072;7.800;2023-04-06T04:55:24;99720.88;;;-1.00;73.90
63554;BME280;49699;48.072;7.800;2023-04-06T04:57:53;99721.72;;;-1.00;74.18
63554;BME280;49699;48.072;7.800;2023-04-06T05:00:24;99725.13;;;-0.99;73.97
63554;BME280;49699;48.072;7.800;2023-04-06T05:02:53;99724.28;;;-1.00;74.25
63554;BME280;49699;48.072;7.800;2023-04-06T05:05:23;99724.28;;;-1.03;74.29
63554;BME280;49699;48.072;7.800;2023-04-06T05:07:49;99730.25;;;-1.02;74.56
63554;BME280;49699;48.072;7.800;2023-04-06T05:10:24;99714.91;;;-0.99;74.54
63554;BME280;49699;48.072;7.800;2023-04-06T05:12:54;99732.78;;;-0.96;74.30
63554;BME280;49699;48.072;7.800;2023-04-06T05:15:19;99729.38;;;-0.97;74.35
63554;BME280;49699;48.072;7.800;2023-04-06T05:17:46;99744.72;;;-0.98;74.17
63554;BME280;49699;48.072;7.800;2023-04-06T05:20:16;99729.41;;;-1.01;74.14
63554;BME280;49699;48.072;7.800;2023-04-06T05:22:46;99731.09;;;-1.00;74.29
63554;BME280;49699;48.072;7.800;2023-04-06T05:25:12;99731.09;;;-0.99;74.54
63554;BME280;49699;48.072;7.800;2023-04-06T05:27:38;99731.94;;;-0.97;74.28
63554;BME280;49699;48.072;7.800;2023-04-06T05:30:09;99731.06;;;-0.91;73.87
63554;BME280;49699;48.072;7.800;2023-04-06T05:32:40;99738.66;;;-0.85;74.03
63554;BME280;49699;48.072;7.800;2023-04-06T05:35:05;99740.31;;;-0.78;73.75
63554;BME280;49699;48.072;7.800;2023-04-06T05:37:32;99738.59;;;-0.73;73.89
63554;BME280;49699;48.072;7.800;2023-04-06T05:39:58;99752.16;;;-0.68;73.17
63554;BME280;49699;48.072;7.800;2023-04-06T05:42:23;99740.19;;;-0.60;73.29
63554;BME280;49699;48.072;7.800;2023-04-06T05:44:52;99746.91;;;-0.50;72.93
63554;BME280;49699;48.072;7.800;2023-04-06T05:47:17;99745.13;;;-0.40;72.57
63554;BME280;49699;48.072;7.800;2023-04-06T05:49:47;99742.47;;;-0.29;72.38
63554;BME280;49699;48.072;7.800;2023-04-06T05:52:20;99740.69;;;-0.18;72.35
63554;BME280;49699;48.072;7.800;2023-04-06T05:54:47;99729.50;;;-0.11;71.81
63554;BME280;49699;48.072;7.800;2023-04-06T05:57:13;99731.13;;;-0.01;71.72
63554;BME280;49699;48.072;7.800;2023-04-06T05:59:38;99739.53;;;0.10;71.48
63554;BME280;49699;48.072;7.800;2023-04-06T06:02:04;99741.13;;;0.20;71.31
63554;BME280;49699;48.072;7.800;2023-04-06T06:04:32;99744.44;;;0.31;70.69
63554;BME280;49699;48.072;7.800;2023-04-06T06:06:58;99742.63;;;0.40;70.46
63554;BME280;49699;48.072;7.800;2023-04-06T06:09:30;99742.50;;;0.50;70.23
63554;BME280;49699;48.072;7.800;2023-04-06T06:12:04;99751.66;;;0.69;69.68
63554;BME280;49699;48.072;7.800;2023-04-06T06:14:30;99749.78;;;0.82;69.29
63554;BME280;49699;48.072;7.800;2023-04-06T06:16:55;99746.16;;;0.97;68.77
63554;BME280;49699;48.072;7.800;2023-04-06T06:19:21;99741.69;;;1.10;68.31
63554;BME280;49699;48.072;7.800;2023-04-06T06:21:47;99751.78;;;1.23;68.15
63554;BME280;49699;48.072;7.800;2023-04-06T06:24:12;99746.41;;;1.37;67.67
63554;BME280;49699;48.072;7.800;2023-04-06T06:26:38;99749.63;;;1.51;67.25
63554;BME280;49699;48.072;7.800;2023-04-06T06:29:09;99752.75;;;1.68;66.83
63554;BME280;49699;48.072;7.800;2023-04-06T06:31:37;99755.06;;;1.84;66.62
63554;BME280;49699;48.072;7.800;2023-04-06T06:34:03;99749.72;;;1.96;66.20
63554;BME280;49699;48.072;7.800;2023-04-06T06:36:29;99752.09;;;2.05;66.00
63554;BME280;49699;48.072;7.800;2023-04-06T06:38:56;99752.84;;;2.13;65.74
63554;BME280;49699;48.072;7.800;2023-04-06T06:41:21;99746.69;;;2.20;65.34
63554;BME280;49699;48.072;7.800;2023-04-06T06:43:47;99746.47;;;2.32;65.29
63554;BME280;49699;48.072;7.800;2023-04-06T06:46:12;99749.59;;;2.48;64.79
63554;BME280;49699;48.072;7.800;2023-04-06T06:48:39;99749.25;;;2.65;64.43
63554;BME280;49699;48.072;7.800;2023-04-06T06:51:04;99745.47;;;2.81;63.61
63554;BME280;49699;48.072;7.800;2023-04-06T06:53:30;99739.13;;;2.97;63.44
63554;BME280;49699;48.072;7.800;2023-04-06T06:55:55;99743.97;;;3.11;62.66
63554;BME280;49699;48.072;7.800;2023-04-06T06:58:22;99734.19;;;3.25;62.24
63554;BME280;49699;48.072;7.800;2023-04-06T07:00:47;99734.56;;;3.45;61.87
63554;BME280;49699;48.072;7.800;2023-04-06T07:03:13;99740.03;;;3.67;61.48
63554;BME280;49699;48.072;7.800;2023-04-06T07:05:38;99734.44;;;3.86;60.50
63554;BME280;49699;48.072;7.800;2023-04-06T07:08:04;99742.53;;;4.04;60.07
63554;BME280;49699;48.072;7.800;2023-04-06T07:10:30;99740.28;;;4.25;59.51
63554;BME280;49699;48.072;7.800;2023-04-06T07:12:55;99749.03;;;4.48;59.10
63554;BME280;49699;48.072;7.800;2023-04-06T07:15:21;99743.22;;;4.73;58.22
63554;BME280;49699;48.072;7.800;2023-04-06T07:17:46;99735.69;;;4.95;57.80
63554;BME280;49699;48.072;7.800;2023-04-06T07:20:12;99743.53;;;5.19;56.86
63554;BME280;49699;48.072;7.800;2023-04-06T07:22:38;99741.09;;;5.41;56.47
63554;BME280;49699;48.072;7.800;2023-04-06T07:25:03;99735.25;;;5.63;55.75
63554;BME280;49699;48.072;7.800;2023-04-06T07:27:29;99734.50;;;5.85;55.42
63554;BME280;49699;48.072;7.800;2023-04-06T07:29:54;99737.28;;;6.06;54.43
63554;BME280;49699;48.072;7.800;2023-04-06T07:32:20;99730.66;;;6.23;54.30
63554;BME280;49699;48.072;7.800;2023-04-06T07:34:45;99729.94;;;6.43;53.65
63554;BME280;49699;48.072;7.800;2023-04-06T07:37:12;99726.44;;;6.68;53.09
63554;BME280;49699;48.072;7.800;2023-04-06T07:39:37;99720.34;;;6.92;52.53
63554;BME280;49699;48.072;7.800;2023-04-06T07:42:03;99730.59;;;7.17;52.04
63554;BME280;49699;48.072;7.800;2023-04-06T07:44:28;99720.16;;;7.40;51.40
63554;BME280;49699;48.072;7.800;2023-04-06T07:46:54;99727.19;;;7.58;50.92
63554;BME280;49699;48.072;7.800;2023-04-06T07:49:21;99724.56;;;7.80;50.50
63554;BME280;49699;48.072;7.800;2023-04-06T07:51:48;99732.34;;;8.00;49.55
63554;BME280;49699;48.072;7.800;2023-04-06T07:54:13;99718.88;;;8.13;49.46
63554;BME280;49699;48.072;7.800;2023-04-06T07:56:38;99729.25;;;8.33;49.16
63554;BME280;49699;48.072;7.800;2023-04-06T07:59:04;99725.72;;;8.54;48.48
63554;BME280;49699;48.072;7.800;2023-04-06T08:01:29;99720.75;;;8.68;48.03
63554;BME280;49699;48.072;7.800;2023-04-06T08:03:55;99724.44;;;8.82;47.76
63554;BME280;49699;48.072;7.800;2023-04-06T08:06:21;99720.41;;;8.95;47.02
63554;BME280;49699;48.072;7.800;2023-04-06T08:08:46;99719.53;;;9.13;46.26
63554;BME280;49699;48.072;7.800;2023-04-06T08:11:11;99726.84;;;9.41;45.78
63554;BME280;49699;48.072;7.800;2023-04-06T08:13:37;99720.41;;;9.67;45.20
63554;BME280;49699;48.072;7.800;2023-04-06T08:16:02;99715.03;;;9.87;44.40
63554;BME280;49699;48.072;7.800;2023-04-06T08:18:27;99723.28;;;9.95;44.25
63554;BME280;49699;48.072;7.800;2023-04-06T08:20:55;99721.59;;;10.12;44.14
63554;BME280;49699;48.072;7.800;2023-04-06T08:23:20;99720.22;;;10.39;43.56
63554;BME280;49699;48.072;7.800;2023-04-06T08:25:45;99722.88;;;10.70;43.00
63554;BME280;49699;48.072;7.800;2023-04-06T08:28:11;99720.59;;;10.96;42.36
63554;BME280;49699;48.072;7.800;2023-04-06T08:30:36;99713.31;;;11.18;42.02
63554;BME280;49699;48.072;7.800;2023-04-06T08:33:02;99717.66;;;11.33;41.22
63554;BME280;49699;48.072;7.800;2023-04-06T08:35:27;99710.41;;;11.38;40.76
63554;BME280;49699;48.072;7.800;2023-04-06T08:37:53;99711.13;;;11.56;40.60
63554;BME280;49699;48.072;7.800;2023-04-06T08:40:18;99701.34;;;11.75;39.87
63554;BME280;49699;48.072;7.800;2023-04-06T08:42:50;99706.88;;;11.85;39.48
63554;BME280;49699;48.072;7.800;2023-04-06T08:45:17;99704.19;;;11.87;39.24
63554;BME280;49699;48.072;7.800;2023-04-06T08:47:43;99700.38;;;11.92;39.02
63554;BME280;49699;48.072;7.800;2023-04-06T08:50:09;99705.84;;;12.18;38.35
63554;BME280;49699;48.072;7.800;2023-04-06T08:52:36;99696.22;;;12.46;37.88
63554;BME280;49699;48.072;7.800;2023-04-06T08:55:03;99697.22;;;12.72;37.25
63554;BME280;49699;48.072;7.800;2023-04-06T08:57:28;99691.53;;;12.80;36.61
63554;BME280;49699;48.072;7.800;2023-04-06T08:59:54;99702.63;;;12.83;36.56
63554;BME280;49699;48.072;7.800;2023-04-06T09:02:21;99693.66;;;12.88;36.51
63554;BME280;49699;48.072;7.800;2023-04-06T09:04:47;99703.34;;;13.00;35.96
63554;BME280;49699;48.072;7.800;2023-04-06T09:07:13;99700.72;;;13.00;35.69
63554;BME280;49699;48.072;7.800;2023-04-06T09:09:39;99697.75;;;13.06;35.68
63554;BME280;49699;48.072;7.800;2023-04-06T09:12:08;99697.00;;;13.31;35.37
63554;BME280;49699;48.072;7.800;2023-04-06T09:14:37;99701.88;;;13.49;34.70
63554;BME280;49699;48.072;7.800;2023-04-06T09:17:03;99701.22;;;13.60;34.58
63554;BME280;49699;48.072;7.800;2023-04-06T09:19:29;99696.63;;;13.76;34.28
63554;BME280;49699;48.072;7.800;2023-04-06T09:22:01;99697.09;;;13.96;34.00
63554;BME280;49699;48.072;7.800;2023-04-06T09:24:26;99702.94;;;14.12;33.16
63554;BME280;49699;48.072;7.800;2023-04-06T09:26:51;99700.94;;;14.15;33.00
63554;BME280;49699;48.072;7.800;2023-04-06T09:29:23;99697.91;;;14.21;32.33
63554;BME280;49699;48.072;7.800;2023-04-06T09:31:49;99700.00;;;14.16;32.08
63554;BME280;49699;48.072;7.800;2023-04-06T09:34:23;99703.47;;;14.17;32.24
63554;BME280;49699;48.072;7.800;2023-04-06T09:36:49;99697.41;;;14.42;31.87
63554;BME280;49699;48.072;7.800;2023-04-06T09:39:14;99694.97;;;14.39;31.33
63554;BME280;49699;48.072;7.800;2023-04-06T09:41:39;99695.09;;;14.37;31.39
63554;BME280;49699;48.072;7.800;2023-04-06T09:44:09;99697.09;;;14.59;31.16
63554;BME280;49699;48.072;7.800;2023-04-06T09:46:38;99694.97;;;14.77;30.85
63554;BME280;49699;48.072;7.800;2023-04-06T09:49:04;99691.44;;;15.02;30.60
63554;BME280;49699;48.072;7.800;2023-04-06T09:51:30;99685.34;;;15.25;30.58
63554;BME280;49699;48.072;7.800;2023-04-06T09:53:56;99687.31;;;15.34;30.24
63554;BME280;49699;48.072;7.800;2023-04-06T09:56:26;99681.13;;;15.35;30.35
63554;BME280;49699;48.072;7.800;2023-04-06T09:58:53;99685.13;;;15.28;30.62
63554;BME280;49699;48.072;7.800;2023-04-06T10:01:20;99691.53;;;15.24;30.86
63554;BME280;49699;48.072;7.800;2023-04-06T10:06:40;99686.00;;;14.92;31.37
63554;BME280;49699;48.072;7.800;2023-04-06T10:09:06;99687.56;;;14.94;31.37
63554;BME280;49699;48.072;7.800;2023-04-06T10:11:33;99679.91;;;15.04;31.01
63554;BME280;49699;48.072;7.800;2023-04-06T10:13:59;99674.75;;;15.03;30.38
63554;BME280;49699;48.072;7.800;2023-04-06T10:16:24;99677.28;;;15.04;30.08
63554;BME280;49699;48.072;7.800;2023-04-06T10:18:52;99671.75;;;15.20;29.73
63554;BME280;49699;48.072;7.800;2023-04-06T10:21:20;99666.66;;;15.29;29.26
63554;BME280;49699;48.072;7.800;2023-04-06T10:23:47;99674.81;;;15.38;28.97
63554;BME280;49699;48.072;7.800;2023-04-06T10:26:17;99670.88;;;15.43;28.79
63554;BME280;49699;48.072;7.800;2023-04-06T10:28:43;99670.41;;;15.38;28.51
63554;BME280;49699;48.072;7.800;2023-04-06T10:31:09;99664.06;;;15.41;28.36
63554;BME280;49699;48.072;7.800;2023-04-06T10:33:34;99658.06;;;15.51;28.09
63554;BME280;49699;48.072;7.800;2023-04-06T10:36:12;99657.50;;;15.59;28.10
63554;BME280;49699;48.072;7.800;2023-04-06T10:38:38;99659.06;;;15.61;27.62
63554;BME280;49699;48.072;7.800;2023-04-06T10:41:04;99656.94;;;15.67;27.23
63554;BME280;49699;48.072;7.800;2023-04-06T10:43:32;99658.50;;;15.80;27.28
63554;BME280;49699;48.072;7.800;2023-04-06T10:46:00;99657.72;;;16.02;26.88
63554;BME280;49699;48.072;7.800;2023-04-06T10:48:35;99649.75;;;16.04;26.83
63554;BME280;49699;48.072;7.800;2023-04-06T10:51:01;99654.53;;;16.21;26.84
63554;BME280;49699;48.072;7.800;2023-04-06T10:53:27;99650.22;;;16.31;26.60
63554;BME280;49699;48.072;7.800;2023-04-06T10:55:54;99653.31;;;16.36;26.70
63554;BME280;49699;48.072;7.800;2023-04-06T10:58:20;99647.97;;;16.38;26.58
63554;BME280;49699;48.072;7.800;2023-04-06T11:00:49;99646.66;;;16.43;26.75
63554;BME280;49699;48.072;7.800;2023-04-06T11:03:14;99646.31;;;16.48;26.81
63554;BME280;49699;48.072;7.800;2023-04-06T11:05:43;99641.53;;;16.42;26.58
63554;BME280;49699;48.072;7.800;2023-04-06T11:08:08;99642.09;;;16.34;26.20
63554;BME280;49699;48.072;7.800;2023-04-06T11:10:34;99635.19;;;16.44;26.16
63554;BME280;49699;48.072;7.800;2023-04-06T11:12:59;99635.78;;;16.48;26.04
63554;BME280;49699;48.072;7.800;2023-04-06T11:15:24;99629.44;;;16.61;25.91
63554;BME280;49699;48.072;7.800;2023-04-06T11:17:50;99631.69;;;16.88;25.55
63554;BME280;49699;48.072;7.800;2023-04-06T11:20:15;99629.03;;;16.88;25.14
63554;BME280;49699;48.072;7.800;2023-04-06T11:22:52;99629.81;;;16.79;24.99
63554;BME280;49699;48.072;7.800;2023-04-06T11:25:18;99623.34;;;16.61;25.33
63554;BME280;49699;48.072;7.800;2023-04-06T11:27:47;99627.31;;;16.44;25.59
63554;BME280;49699;48.072;7.800;2023-04-06T11:30:13;99616.19;;;16.52;25.50
63554;BME280;49699;48.072;7.800;2023-04-06T11:32:42;99619.41;;;16.55;25.23
63554;BME280;49699;48.072;7.800;2023-04-06T11:35:10;99611.31;;;16.36;25.43
63554;BME280;49699;48.072;7.800;2023-04-06T11:37:35;99613.25;;;16.12;25.84
63554;BME280;49699;48.072;7.800;2023-04-06T11:40:01;99614.88;;;16.02;26.10
63554;BME280;49699;48.072;7.800;2023-04-06T11:42:26;99610.69;;;15.99;26.38
63554;BME280;49699;48.072;7.800;2023-04-06T11:44:59;99617.63;;;16.00;26.33
63554;BME280;49699;48.072;7.800;2023-04-06T11:47:35;99611.91;;;16.17;26.16
63554;BME280;49699;48.072;7.800;2023-04-06T11:50:10;99603.44;;;16.47;25.63
63554;BME280;49699;48.072;7.800;2023-04-06T11:52:36;99603.16;;;16.61;25.43
63554;BME280;49699;48.072;7.800;2023-04-06T11:55:11;99597.69;;;16.64;25.04
63554;BME280;49699;48.072;7.800;2023-04-06T11:57:37;99599.59;;;16.62;25.26
63554;BME280;49699;48.072;7.800;2023-04-06T12:00:02;99601.59;;;16.70;25.14
63554;BME280;49699;48.072;7.800;2023-04-06T12:02:30;99601.13;;;16.76;25.11
63554;BME280;49699;48.072;7.800;2023-04-06T12:04:57;99592.03;;;16.80;24.78
63554;BME280;49699;48.072;7.800;2023-04-06T12:07:22;99590.38;;;16.79;24.74
63554;BME280;49699;48.072;7.800;2023-04-06T12:09:47;99585.84;;;16.81;24.77
63554;BME280;49699;48.072;7.800;2023-04-06T12:12:12;99585.06;;;16.90;24.86
63554;BME280;49699;48.072;7.800;2023-04-06T12:14:38;99578.97;;;17.01;24.75
63554;BME280;49699;48.072;7.800;2023-04-06T12:17:03;99585.56;;;16.84;24.30
63554;BME280;49699;48.072;7.800;2023-04-06T12:19:28;99586.56;;;16.61;24.96
63554;BME280;49699;48.072;7.800;2023-04-06T12:21:54;99586.22;;;16.54;24.99
63554;BME280;49699;48.072;7.800;2023-04-06T12:24:19;99590.06;;;16.39;24.72
63554;BME280;49699;48.072;7.800;2023-04-06T12:26:44;99583.03;;;16.28;24.89
63554;BME280;49699;48.072;7.800;2023-04-06T12:29:10;99586.63;;;16.27;24.77
63554;BME280;49699;48.072;7.800;2023-04-06T12:31:36;99578.13;;;16.35;25.05
63554;BME280;49699;48.072;7.800;2023-04-06T12:34:03;99568.78;;;16.53;24.87
63554;BME280;49699;48.072;7.800;2023-04-06T12:36:28;99572.38;;;16.63;24.92
63554;BME280;49699;48.072;7.800;2023-04-06T12:38:54;99568.41;;;16.69;24.74
63554;BME280;49699;48.072;7.800;2023-04-06T12:41:20;99564.94;;;16.69;24.79
63554;BME280;49699;48.072;7.800;2023-04-06T12:43:46;99576.03;;;16.72;24.96
63554;BME280;49699;48.072;7.800;2023-04-06T12:46:11;99569.00;;;16.61;25.19
63554;BME280;49699;48.072;7.800;2023-04-06T12:48:37;99569.25;;;16.58;25.31
63554;BME280;49699;48.072;7.800;2023-04-06T12:51:03;99563.03;;;16.48;25.43
63554;BME280;49699;48.072;7.800;2023-04-06T12:53:29;99561.53;;;16.46;25.89
63554;BME280;49699;48.072;7.800;2023-04-06T12:55:54;99560.09;;;16.42;25.91
63554;BME280;49699;48.072;7.800;2023-04-06T12:58:20;99571.56;;;16.29;26.04
63554;BME280;49699;48.072;7.800;2023-04-06T13:00:49;99557.47;;;16.19;26.25
63554;BME280;49699;48.072;7.800;2023-04-06T13:03:18;99556.53;;;16.09;26.28
63554;BME280;49699;48.072;7.800;2023-04-06T13:05:44;99561.44;;;16.03;26.29
63554;BME280;49699;48.072;7.800;2023-04-06T13:08:10;99561.56;;;15.90;26.25